Time;durP1;ratioP1;P1;durP2;ratioP2;P2;SDS_P1;SDS_P2;PMS_P1;PMS_P2;Temp;Humidity;BMP_temperature;BMP_pressure;BME280_temperature;BME280_humidity;BME280_pressure;Samples;Min_cycle;Max_cycle;Signal;HPM_P1;HPM_P2
2021/05/25 00:01:32;;;;;;;0.50;0.50;;;20.50;41.70;;;24.02;28.63;100506.69;5118292;28;20039;-44
2021/05/25 00:03:58;;;;;;;0.60;0.60;;;20.60;41.80;;;24.04;28.52;100510.97;5135714;28;20070;-45
2021/05/25 00:06:24;;;;;;;0.60;0.60;;;20.50;41.70;;;24.02;28.52;100509.38;5136078;28;20462;-45
2021/05/25 00:08:49;;;;;;;0.65;0.60;;;20.50;41.70;;;23.97;28.69;100503.56;5118117;28;20054;-45
2021/05/25 00:11:16;;;;;;;0.57;0.57;;;20.50;42.30;;;23.98;28.47;100506.09;5118170;28;20046;-48
2021/05/25 00:13:42;;;;;;;0.60;0.60;;;20.50;41.80;;;23.96;28.71;100507.22;5135152;28;20444;-48
2021/05/25 00:16:08;;;;;;;1.15;0.75;;;20.50;41.80;;;23.98;28.84;100503.44;5135217;27;20051;-45
2021/05/25 00:18:34;;;;;;;0.50;0.50;;;20.50;41.90;;;23.96;28.65;100502.72;5136530;27;20043;-48
2021/05/25 00:21:00;;;;;;;0.77;0.70;;;20.50;41.90;;;23.96;28.56;100502.72;5117950;28;20058;-46
2021/05/25 00:23:26;;;;;;;0.45;0.45;;;20.50;41.90;;;23.96;28.65;100493.84;5135458;28;20043;-44
2021/05/25 00:25:52;;;;;;;0.50;0.50;;;20.50;41.90;;;23.96;28.58;100499.19;5117966;28;20050;-49
2021/05/25 00:28:20;;;;;;;1.17;0.80;;;20.40;41.90;;;23.97;28.88;100500.88;5118269;28;20138;-47
2021/05/25 00:30:47;;;;;;;0.60;0.60;;;20.50;42.00;;;23.95;28.77;100490.31;5117933;28;20039;-50
2021/05/25 00:33:13;;;;;;;0.52;0.52;;;20.50;42.00;;;23.91;28.67;100488.88;5100871;28;20043;-46
2021/05/25 00:35:40;;;;;;;0.68;0.60;;;20.50;42.00;;;23.95;28.69;100484.13;5118118;28;20054;-49
2021/05/25 00:38:07;;;;;;;0.60;0.60;;;20.50;42.00;;;23.90;28.92;100479.16;5136302;27;20138;-47
2021/05/25 00:40:33;;;;;;;0.50;0.50;;;20.40;42.00;;;23.90;28.80;100478.31;5118021;28;20050;-46
2021/05/25 00:43:00;;;;;;;0.80;0.80;;;20.40;42.00;;;23.91;28.72;100482.69;5134729;28;20043;-45
2021/05/25 00:45:26;;;;;;;0.50;0.50;;;20.40;42.00;;;23.91;28.95;100477.38;5134969;28;20051;-44
2021/05/25 00:47:52;;;;;;;0.73;0.73;;;20.40;42.10;;;23.89;28.87;100471.28;5117769;28;20051;-48
2021/05/25 00:50:22;;;;;;;0.70;0.70;;;20.40;42.10;;;23.86;28.74;100467.03;5117356;28;20541;-45
2021/05/25 00:52:52;;;;;;;0.63;0.60;;;20.40;42.20;;;23.89;28.84;100468.59;5135085;28;20047;-45
2021/05/25 00:55:20;;;;;;;0.68;0.60;;;20.40;42.20;;;23.90;28.86;100472.97;5134721;27;20055;-46
2021/05/25 00:57:49;;;;;;;0.70;0.70;;;20.40;42.20;;;23.85;28.88;100468.84;5134606;28;20184;-44
2021/05/25 01:00:21;;;;;;;0.60;0.57;;;20.40;42.20;;;23.85;28.93;100468.84;5100326;28;20051;-46
2021/05/25 01:02:47;;;;;;;0.45;0.40;;;20.40;42.20;;;23.86;28.91;100467.88;5117492;28;20079;-49
2021/05/25 01:05:16;;;;;;;0.55;0.50;;;20.40;42.20;;;23.85;28.98;100474.19;5083662;28;20055;-44
2021/05/25 01:07:42;;;;;;;0.80;0.80;;;20.40;42.30;;;23.80;28.82;100460.31;5117160;28;20062;-45
2021/05/25 01:10:09;;;;;;;0.85;0.50;;;20.40;42.30;;;23.82;29.07;100463.78;5116384;28;20054;-47
2021/05/25 01:12:39;;;;;;;0.52;0.52;;;20.40;42.30;;;23.82;28.78;100463.78;5117859;28;20051;-46
2021/05/25 01:15:09;;;;;;;0.55;0.55;;;20.30;42.30;;;23.83;28.86;100465.47;5117587;28;20501;-45
2021/05/25 01:17:36;;;;;;;0.73;0.65;;;20.30;42.30;;;23.80;29.02;100460.31;5117669;28;20078;-48
2021/05/25 01:20:04;;;;;;;0.73;0.70;;;20.30;42.30;;;23.80;28.95;100465.66;5117091;28;20054;-44
2021/05/25 01:22:30;;;;;;;0.60;0.60;;;20.30;42.40;;;23.78;29.23;100456.94;5100168;28;20503;-46
2021/05/25 01:24:56;;;;;;;0.85;0.75;;;20.30;42.40;;;23.81;29.08;100455.84;5117391;28;20054;-45
2021/05/25 01:27:22;;;;;;;0.60;0.60;;;20.30;42.40;;;23.81;29.13;100462.03;5116764;28;20056;-45
2021/05/25 01:29:48;;;;;;;0.50;0.50;;;20.30;42.40;;;23.79;29.10;100463.13;5117459;28;20075;-48
2021/05/25 01:32:15;;;;;;;0.60;0.60;;;20.30;42.40;;;23.77;28.88;100460.59;5099854;28;20096;-44
2021/05/25 01:34:40;;;;;;;0.75;0.55;;;20.30;42.40;;;23.77;29.09;100460.59;5116915;28;20047;-44
2021/05/25 01:37:06;;;;;;;0.80;0.70;;;20.30;42.50;;;23.76;29.15;100463.38;5116727;28;20039;-46
2021/05/25 01:39:32;;;;;;;0.77;0.70;;;20.30;42.50;;;23.79;29.21;100461.31;5117172;28;20050;-44
2021/05/25 01:41:59;;;;;;;0.50;0.50;;;20.30;42.50;;;23.77;29.23;100457.94;5116912;28;20054;-44
2021/05/25 01:44:24;;;;;;;1.80;0.68;;;20.30;42.50;;;23.78;29.15;100458.78;5116775;28;20051;-48
2021/05/25 01:46:51;;;;;;;0.75;0.70;;;20.30;42.50;;;23.79;29.14;100458.66;5116732;28;20474;-43
2021/05/25 01:49:18;;;;;;;0.73;0.73;;;20.30;42.50;;;23.75;29.10;100456.34;5135027;27;20047;-46
2021/05/25 01:51:46;;;;;;;0.60;0.60;;;20.30;42.60;;;23.77;29.08;100457.06;5117131;28;20045;-44
2021/05/25 01:54:12;;;;;;;0.77;0.50;;;20.30;42.60;;;23.76;29.01;100466.91;5116502;28;20051;-45
2021/05/25 01:56:38;;;;;;;0.95;0.60;;;20.30;42.60;;;23.76;29.14;100466.06;5133588;28;20478;-44
2021/05/25 01:59:03;;;;;;;0.93;0.73;;;20.30;42.60;;;23.72;29.24;100465.44;5116255;28;20055;-44
2021/05/25 02:01:29;;;;;;;0.60;0.60;;;20.30;42.60;;;23.74;29.13;100460.84;5116990;28;20054;-46
2021/05/25 02:03:55;;;;;;;0.65;0.60;;;20.20;42.60;;;23.75;29.10;100469.69;5116468;28;20065;-45
2021/05/25 02:06:21;;;;;;;0.63;0.63;;;20.30;42.70;;;23.74;29.13;100467.97;5133863;28;20047;-44
2021/05/25 02:08:46;;;;;;;0.50;0.50;;;20.20;42.70;;;23.73;29.04;100460.97;5133321;28;20047;-47
2021/05/25 02:11:12;;;;;;;1.23;0.50;;;20.20;43.20;;;23.72;29.17;100453.91;5133899;28;20486;-48
2021/05/25 02:13:39;;;;;;;0.75;0.60;;;20.20;43.00;;;23.65;29.36;100450.88;5116890;28;20097;-46
2021/05/25 02:16:13;;;;;;;0.80;0.77;;;20.20;42.70;;;23.67;29.25;100457.81;5116323;28;20043;-46
2021/05/25 02:18:46;;;;;;;0.70;0.70;;;20.20;42.70;;;23.67;29.25;100456.94;5116333;28;20051;-46
2021/05/25 02:21:20;;;;;;;0.80;0.77;;;20.20;42.80;;;23.72;29.16;100462.75;5115935;28;20116;-47
2021/05/25 02:23:49;;;;;;;0.70;0.70;;;20.20;42.80;;;23.73;29.35;100460.97;5116244;28;20047;-46
2021/05/25 02:26:14;;;;;;;0.60;0.60;;;20.20;42.80;;;23.74;29.34;100467.97;5116060;28;20050;-44
2021/05/25 02:28:41;;;;;;;0.60;0.60;;;20.20;42.80;;;23.68;29.27;100458.66;5116238;28;20082;-43
2021/05/25 02:31:08;;;;;;;0.70;0.70;;;20.20;42.80;;;23.68;29.28;100462.16;5116275;28;20043;-45
2021/05/25 02:33:35;;;;;;;0.70;0.70;;;20.20;42.90;;;23.67;29.24;100451.59;5133316;28;20050;-44
2021/05/25 02:36:02;;;;;;;0.70;0.60;;;20.20;42.90;;;23.66;29.44;100457.94;5115946;28;20422;-44
2021/05/25 02:38:30;;;;;;;0.55;0.55;;;20.20;42.90;;;23.66;29.27;100453.44;5098888;28;20047;-47
2021/05/25 02:40:58;;;;;;;0.70;0.70;;;20.20;42.90;;;23.65;29.42;100449.06;5115934;28;20047;-45
2021/05/25 02:43:25;;;;;;;0.50;0.50;;;20.20;43.00;;;23.63;29.43;100444.81;5116216;28;20058;-46
2021/05/25 02:45:52;;;;;;;0.50;0.50;;;20.20;42.90;;;23.62;29.37;100433.31;5115853;28;20054;-49
2021/05/25 02:48:19;;;;;;;1.02;0.60;;;20.20;43.00;;;23.62;29.44;100445.78;5115805;28;20043;-48
2021/05/25 02:50:46;;;;;;;0.98;0.88;;;20.10;42.90;;;23.63;29.49;100445.66;5115590;28;20059;-44
2021/05/25 02:53:13;;;;;;;0.68;0.50;;;20.10;43.00;;;23.64;29.48;100438.53;5115686;28;20056;-49
2021/05/25 02:55:40;;;;;;;0.70;0.70;;;20.10;42.90;;;23.61;29.44;100434.28;5115428;28;20397;-49
2021/05/25 02:58:09;;;;;;;0.73;0.70;;;20.10;43.00;;;23.66;29.19;100440.09;5115618;28;20158;-47
2021/05/25 03:00:41;;;;;;;1.05;0.80;;;20.10;43.00;;;23.65;29.57;100435.72;5116133;28;20054;-45
2021/05/25 03:03:09;;;;;;;0.60;0.60;;;20.20;43.10;;;23.68;29.63;100450.66;5115623;28;20058;-47
2021/05/25 03:05:35;;;;;;;0.50;0.50;;;20.20;43.00;;;23.71;29.57;100466.41;5133808;27;20158;-45
2021/05/25 03:08:04;;;;;;;0.70;0.70;;;20.20;43.00;;;23.72;29.45;100449.41;5098640;28;20047;-45
2021/05/25 03:10:33;;;;;;;0.60;0.60;;;20.30;43.00;;;23.79;29.45;100450.63;5115901;28;20133;-45
2021/05/25 03:13:00;;;;;;;0.90;0.70;;;20.30;42.90;;;23.84;29.45;100443.13;5132335;28;20057;-47
2021/05/25 03:15:48;;;;;;;0.70;0.70;;;20.40;42.80;;;23.85;29.28;100439.47;5098329;28;20049;-47
2021/05/25 03:18:15;;;;;;;0.68;0.68;;;20.50;42.80;;;23.95;29.41;100452.09;5132511;28;20081;-44
2021/05/25 03:20:47;;;;;;;0.50;0.50;;;20.50;42.70;;;23.95;29.41;100450.25;5132204;28;20040;-44
2021/05/25 03:23:14;;;;;;;0.60;0.60;;;20.50;42.60;;;24.04;29.23;100457.53;5116428;28;20092;-46
2021/05/25 03:25:40;;;;;;;0.88;0.70;;;20.50;42.50;;;24.06;29.31;100457.41;5115556;28;20083;-48
2021/05/25 03:28:06;;;;;;;0.68;0.68;;;20.60;42.50;;;24.10;29.29;100466.88;5115221;28;20154;-45
2021/05/25 03:30:32;;;;;;;1.65;0.70;;;20.70;42.50;;;24.12;29.20;100464.91;5132229;28;20486;-49
2021/05/25 03:32:58;;;;;;;1.13;0.75;;;20.70;42.40;;;24.18;29.10;100469.75;5131387;27;20047;-49
2021/05/25 03:35:25;;;;;;;0.60;0.60;;;20.70;42.30;;;24.20;29.04;100473.16;5134021;27;20395;-46
2021/05/25 03:37:52;;;;;;;1.52;0.70;;;20.70;42.30;;;24.20;29.16;100459.78;5114966;28;20043;-45
2021/05/25 03:40:19;;;;;;;0.77;0.60;;;20.80;42.30;;;24.28;29.08;100464.50;5131959;28;20043;-45
2021/05/25 03:42:50;;;;;;;1.65;0.60;;;20.80;42.20;;;24.30;28.93;100477.75;5115040;28;20479;-46
2021/05/25 03:45:17;;;;;;;0.50;0.50;;;20.80;42.30;;;24.31;28.98;100471.44;5115109;28;20035;-48
2021/05/25 03:47:43;;;;;;;1.15;0.90;;;20.80;42.20;;;24.37;28.89;100482.47;5115360;28;20390;-45
2021/05/25 03:50:10;;;;;;;1.50;0.82;;;20.90;42.20;;;24.38;28.99;100475.28;5131992;28;20108;-48
2021/05/25 03:52:43;;;;;;;0.80;0.70;;;20.80;42.20;;;24.34;28.98;100471.16;5114776;28;20069;-45
2021/05/25 03:55:26;;;;;;;0.68;0.68;;;20.90;42.20;;;24.39;28.92;100475.16;5131986;28;20051;-49
2021/05/25 04:00:36;;;;;;;0.60;0.60;;;20.90;42.30;;;24.45;28.87;100489.84;5117901;28;20054;-44
2021/05/25 04:03:02;;;;;;;0.88;0.60;;;20.90;42.20;;;24.45;28.89;100487.16;5114445;28;20047;-44
2021/05/25 04:05:28;;;;;;;0.60;0.60;;;20.90;42.30;;;24.46;28.85;100482.66;5115010;28;20393;-47
2021/05/25 04:07:54;;;;;;;0.52;0.52;;;20.90;42.50;;;24.50;28.95;100489.47;5114607;28;20051;-48
2021/05/25 04:10:20;;;;;;;0.50;0.50;;;20.90;42.30;;;24.51;28.92;100491.19;5115181;28;20049;-47
2021/05/25 04:12:46;;;;;;;0.60;0.60;;;21.00;42.20;;;24.54;28.78;100493.56;5114589;28;20049;-44
2021/05/25 04:15:12;;;;;;;0.80;0.80;;;20.90;42.10;;;24.54;28.77;100493.56;5131672;28;20043;-48
2021/05/25 04:17:40;;;;;;;0.75;0.70;;;20.90;42.20;;;24.55;28.71;100506.84;5131594;28;20054;-46
2021/05/25 04:20:11;;;;;;;1.40;1.00;;;20.90;42.30;;;24.53;28.71;100498.06;5115069;28;20043;-44
2021/05/25 04:22:38;;;;;;;0.70;0.50;;;20.80;42.30;;;24.50;28.86;100501.00;5131514;28;20122;-48
2021/05/25 04:25:05;;;;;;;0.98;0.77;;;20.80;42.40;;;24.47;28.83;100495.91;5115082;28;20047;-45
2021/05/25 04:27:31;;;;;;;0.70;0.70;;;20.80;42.40;;;24.46;28.81;100494.22;5132786;27;20050;-44
2021/05/25 04:29:57;;;;;;;0.68;0.63;;;20.70;42.50;;;24.42;28.85;100498.97;5114208;28;20043;-45
2021/05/25 04:32:23;;;;;;;0.90;0.80;;;20.70;42.60;;;24.41;28.83;100504.44;5114711;28;20530;-44
2021/05/25 04:34:49;;;;;;;0.70;0.70;;;20.70;42.60;;;24.35;28.97;100511.13;5131791;28;20375;-45
2021/05/25 04:37:15;;;;;;;0.60;0.60;;;20.70;42.70;;;24.31;28.89;100507.03;5114580;28;20389;-45
2021/05/25 04:39:40;;;;;;;0.70;0.70;;;20.60;42.70;;;24.28;29.30;100511.78;5114308;28;20079;-48
2021/05/25 04:42:07;;;;;;;0.70;0.70;;;20.60;42.80;;;24.23;29.12;100507.63;5097566;28;20043;-47
2021/05/25 04:44:33;;;;;;;0.60;0.60;;;20.60;42.90;;;24.21;29.33;100517.59;5116887;28;20082;-46
2021/05/25 04:46:59;;;;;;;1.17;0.70;;;20.50;42.90;;;24.19;29.15;100510.66;5134904;28;20053;-48
2021/05/25 04:49:26;;;;;;;0.82;0.68;;;20.60;43.00;;;24.18;29.26;100506.31;5117577;28;20047;-45
2021/05/25 04:51:51;;;;;;;0.98;0.80;;;20.50;43.00;;;24.17;29.00;100508.16;5135125;28;20134;-48
2021/05/25 04:54:17;;;;;;;0.60;0.60;;;20.50;43.10;;;24.18;29.21;100509.00;5117578;28;20043;-46
2021/05/25 04:56:44;;;;;;;0.50;0.50;;;20.50;43.20;;;24.15;29.12;100514.56;5117541;28;20047;-49
2021/05/25 04:59:10;;;;;;;0.98;0.65;;;20.50;43.20;;;24.16;29.30;100510.94;5117225;28;20066;-44
2021/05/25 05:01:35;;;;;;;0.77;0.77;;;20.40;43.20;;;24.13;29.29;100509.34;5134599;28;20050;-44
2021/05/25 05:04:01;;;;;;;0.68;0.60;;;20.50;43.20;;;24.14;29.18;100516.41;5117203;28;20051;-44
2021/05/25 05:06:27;;;;;;;1.23;0.70;;;20.40;43.10;;;24.14;29.19;100527.09;5117872;28;20039;-44
2021/05/25 05:08:52;;;;;;;0.88;0.80;;;20.40;43.20;;;24.12;29.37;100521.00;5134246;28;20062;-44
2021/05/25 05:11:18;;;;;;;0.50;0.50;;;20.40;43.30;;;24.12;29.27;100534.34;5117891;28;20046;-44
2021/05/25 05:13:44;;;;;;;1.17;0.85;;;20.40;43.30;;;24.14;29.32;100534.22;5134988;28;20047;-44
2021/05/25 05:16:12;;;;;;;0.73;0.55;;;20.50;43.40;;;24.14;29.53;100537.78;5135639;27;20054;-45
2021/05/25 05:18:38;;;;;;;1.02;0.80;;;20.50;43.30;;;24.18;29.25;100536.53;5135636;27;20111;-44
2021/05/25 05:21:04;;;;;;;0.70;0.70;;;20.50;43.20;;;24.22;29.15;100545.16;5134285;28;20047;-46
2021/05/25 05:23:30;;;;;;;0.60;0.60;;;20.60;43.10;;;24.23;29.49;100539.69;5134312;28;20547;-45
2021/05/25 05:25:55;;;;;;;2.72;0.80;;;20.60;43.00;;;24.24;29.42;100535.22;5116818;28;20051;-44
2021/05/25 05:28:21;;;;;;;1.02;0.60;;;20.70;43.00;;;24.26;29.27;100533.25;5116967;27;20046;-44
2021/05/25 05:30:47;;;;;;;0.88;0.73;;;20.70;42.90;;;24.30;29.25;100539.19;5116870;28;20401;-43
2021/05/25 05:33:14;;;;;;;0.60;0.60;;;20.70;42.80;;;24.36;29.28;100541.38;5134467;28;20440;-43
2021/05/25 05:35:40;;;;;;;0.65;0.60;;;20.80;42.80;;;24.41;29.25;100536.50;5133996;28;20962;-43
2021/05/25 05:38:06;;;;;;;0.50;0.50;;;20.90;42.80;;;24.46;29.20;100536.09;5099786;28;20542;-44
2021/05/25 05:40:34;;;;;;;1.02;0.95;;;21.00;42.50;;;24.62;29.08;100535.75;5117082;28;20482;-44
2021/05/25 05:43:00;;;;;;;2.80;0.80;;;21.10;42.20;;;24.69;29.05;100531.56;5117092;28;20486;-44
2021/05/25 05:45:26;;;;;;;1.52;0.57;;;21.20;42.00;;;24.77;28.83;100526.44;5117178;28;20055;-44
2021/05/25 05:47:52;;;;;;;0.70;0.70;;;21.40;41.80;;;24.89;28.88;100541.47;5116703;28;20055;-45
2021/05/25 05:50:18;;;;;;;0.60;0.60;;;21.50;41.70;;;24.99;28.70;100533.50;5117001;28;20420;-45
2021/05/25 05:52:44;;;;;;;1.55;0.68;;;21.50;41.50;;;25.07;28.53;100533.72;5133949;28;20088;-44
2021/05/25 05:55:11;;;;;;;2.28;1.00;;;21.60;41.40;;;25.13;28.56;100530.53;5115604;28;20393;-44
2021/05/25 05:57:37;;;;;;;1.98;0.70;;;21.60;41.30;;;25.15;28.43;100523.22;5134141;28;20122;-44
2021/05/25 06:00:07;;;;;;;0.70;0.70;;;21.60;41.40;;;25.17;28.36;100530.28;5116509;28;20055;-44
2021/05/25 06:02:38;;;;;;;0.77;0.77;;;21.50;41.40;;;25.15;28.21;100531.22;5134960;27;20462;-45
2021/05/25 06:05:04;;;;;;;0.95;0.65;;;21.50;41.60;;;25.11;28.29;100528.97;5116468;28;20081;-45
2021/05/25 06:07:30;;;;;;;1.05;0.70;;;21.40;41.70;;;25.07;28.16;100533.72;5116116;28;20043;-45
2021/05/25 06:09:58;;;;;;;0.60;0.60;;;21.30;41.80;;;25.04;28.46;100538.47;5133558;28;20092;-46
2021/05/25 06:12:24;;;;;;;0.70;0.70;;;21.20;41.90;;;24.99;28.52;100533.50;5116369;28;20051;-43
2021/05/25 06:14:49;;;;;;;1.23;0.63;;;21.20;42.10;;;24.97;28.39;100524.78;5116135;28;20494;-48
2021/05/25 06:17:15;;;;;;;1.02;0.73;;;21.20;42.10;;;24.95;28.52;100529.41;5116339;28;20050;-44
2021/05/25 06:19:41;;;;;;;1.38;0.63;;;21.20;42.20;;;24.93;28.65;100529.53;5134550;28;20100;-45
2021/05/25 06:22:07;;;;;;;1.02;0.80;;;21.10;42.10;;;24.86;28.66;100524.81;5116664;28;20046;-46
2021/05/25 06:24:33;;;;;;;0.80;0.80;;;21.10;42.20;;;24.85;28.60;100529.31;5116008;28;20103;-45
2021/05/25 06:26:59;;;;;;;0.73;0.60;;;21.00;42.30;;;24.80;28.48;100525.34;5116021;28;20047;-45
2021/05/25 06:29:25;;;;;;;1.00;0.70;;;21.00;42.50;;;24.76;28.53;100530.94;5133370;28;20099;-48
2021/05/25 06:31:51;;;;;;;0.60;0.60;;;20.90;42.50;;;24.71;28.68;100540.34;5133223;28;20055;-44
2021/05/25 06:34:17;;;;;;;0.85;0.70;;;20.90;42.60;;;24.66;28.74;100535.38;5115646;28;20055;-46
2021/05/25 06:36:43;;;;;;;4.45;1.00;;;20.90;42.70;;;24.62;28.75;100533.91;5115792;28;20051;-43
2021/05/25 06:39:08;;;;;;;0.90;0.73;;;20.90;42.80;;;24.59;28.73;100536.84;5116389;28;20103;-44
2021/05/25 06:41:34;;;;;;;1.05;0.73;;;20.80;42.80;;;24.58;28.95;100538.66;5134645;27;20497;-43
2021/05/25 06:44:00;;;;;;;1.33;0.60;;;20.80;42.80;;;24.59;28.92;100553.75;5116225;28;20474;-45
2021/05/25 06:46:25;;;;;;;0.95;0.70;;;20.80;42.90;;;24.57;29.08;100549.47;5115503;28;20116;-46
2021/05/25 06:48:51;;;;;;;2.60;0.70;;;20.80;43.00;;;24.57;29.16;100553.03;5115604;28;20043;-44
2021/05/25 06:51:17;;;;;;;2.55;0.70;;;20.80;43.00;;;24.59;28.86;100553.75;5098590;28;20039;-44
2021/05/25 06:53:43;;;;;;;1.40;0.70;;;20.80;43.00;;;24.58;29.00;100540.50;5115620;28;20047;-45
2021/05/25 06:56:08;;;;;;;1.75;0.77;;;20.80;42.90;;;24.62;29.08;100549.94;5115870;28;20081;-45
2021/05/25 06:58:34;;;;;;;0.80;0.80;;;20.90;42.90;;;24.68;29.06;100552.13;5115517;28;20103;-46
2021/05/25 07:01:00;;;;;;;1.17;0.75;;;21.00;42.90;;;24.72;28.85;100555.38;5115495;28;20055;-44
2021/05/25 07:03:26;;;;;;;1.30;0.70;;;21.00;42.70;;;24.76;28.90;100560.38;5115551;28;20047;-44
2021/05/25 07:05:52;;;;;;;16.27;2.90;;;21.00;42.60;;;24.75;29.95;100563.16;5115682;27;20104;-53
2021/05/25 07:08:17;;;;;;;1.33;0.90;;;21.10;45.50;;;24.77;29.42;100561.19;5114219;28;20043;-55
2021/05/25 07:10:43;;;;;;;11.45;1.77;;;21.00;43.20;;;24.74;30.13;100570.34;5134323;27;20124;-56
2021/05/25 07:13:12;;;;;;;6.50;1.67;;;20.90;46.50;;;24.69;31.53;100575.22;5132394;28;20039;-56
2021/05/25 07:15:37;;;;;;;12.38;1.70;;;20.90;50.00;;;24.66;32.50;100574.59;5133853;27;20051;-56
2021/05/25 07:18:04;;;;;;;4.43;1.35;;;20.90;50.90;;;24.65;33.44;100578.28;5132666;28;20138;-57
2021/05/25 07:20:29;;;;;;;4.25;1.52;;;20.80;53.50;;;24.63;33.54;100574.88;5132224;28;20096;-57
2021/05/25 07:22:55;;;;;;;4.05;1.40;;;20.80;52.70;;;24.57;33.72;100579.75;5115019;28;20051;-57
2021/05/25 07:25:25;;;;;;;3.55;1.15;;;20.70;51.70;;;24.49;33.23;100575.94;5132174;28;20074;-57
2021/05/25 07:27:51;;;;;;;6.30;1.48;;;20.70;50.80;;;24.47;33.12;100581.41;5131788;28;20054;-56
2021/05/25 07:30:18;;;;;;;3.50;1.40;;;20.70;49.70;;;24.46;32.90;100586.88;5114964;28;20043;-56
2021/05/25 07:32:44;;;;;;;3.70;1.20;;;20.70;49.30;;;24.47;32.95;100580.59;5132134;28;20050;-57
2021/05/25 07:35:11;;;;;;;2.33;0.90;;;20.70;48.70;;;24.49;32.70;100582.16;5098224;28;20402;-56
2021/05/25 07:37:38;;;;;;;4.65;0.93;;;20.80;48.30;;;24.62;32.36;100591.88;5114893;28;20046;-57
2021/05/25 07:40:06;;;;;;;4.60;0.90;;;20.90;47.80;;;24.68;32.12;100580.69;5132102;28;20390;-55
2021/05/25 07:42:31;;;;;;;4.25;1.23;;;20.90;47.30;;;24.76;31.78;100586.25;5133308;27;20043;-57
2021/05/25 07:44:57;;;;;;;3.63;1.08;;;21.00;47.10;;;24.83;31.64;100579.41;5114765;28;20371;-57
2021/05/25 07:47:23;;;;;;;3.35;1.10;;;21.10;46.80;;;24.91;31.48;100589.50;5114678;28;20380;-55
2021/05/25 07:49:49;;;;;;;2.97;1.20;;;21.10;46.40;;;24.95;31.40;100575.72;5115147;28;20070;-57
2021/05/25 07:52:17;;;;;;;2.65;0.80;;;21.20;46.30;;;24.98;31.23;100579.13;5114629;28;20054;-55
2021/05/25 07:54:43;;;;;;;3.35;0.90;;;21.10;46.10;;;24.98;31.17;100587.16;5131712;28;20050;-57
2021/05/25 07:57:08;;;;;;;6.20;1.10;;;21.10;46.00;;;24.91;31.01;100574.28;5114983;28;20051;-55
2021/05/25 07:59:36;;;;;;;2.33;1.00;;;21.10;46.10;;;24.87;31.02;100583.53;5114638;28;20043;-56
2021/05/25 08:02:01;;;;;;;3.08;0.90;;;21.00;46.10;;;24.89;31.09;100594.09;5114730;28;20553;-57
2021/05/25 08:04:27;;;;;;;2.40;1.17;;;21.00;46.00;;;24.89;30.95;100602.13;5114603;28;20138;-57
2021/05/25 08:06:53;;;;;;;2.17;1.13;;;21.00;46.50;;;24.85;30.98;100598.00;5114496;28;20050;-52
2021/05/25 08:09:19;;;;;;;2.20;0.98;;;21.00;45.90;;;24.85;30.93;100598.84;5131331;28;20058;-53
2021/05/25 08:11:44;;;;;;;4.72;1.25;;;21.00;45.90;;;24.83;30.80;100603.50;5114362;28;20043;-55
2021/05/25 08:14:11;;;;;;;2.90;1.00;;;21.00;45.80;;;24.84;30.88;100607.88;5114865;28;20134;-53
2021/05/25 08:16:40;;;;;;;1.75;0.80;;;21.00;45.70;;;24.84;30.84;100607.88;5114232;28;20439;-55
2021/05/25 08:19:12;;;;;;;1.85;0.95;;;21.00;45.70;;;24.86;30.75;100621.09;5116665;28;20191;-54
2021/05/25 08:21:39;;;;;;;5.97;1.17;;;21.00;45.60;;;24.82;30.76;100608.97;5101847;28;20379;-54
2021/05/25 08:24:06;;;;;;;2.30;0.95;;;21.00;45.60;;;24.82;30.67;100619.66;5135082;28;20164;-56
2021/05/25 08:26:33;;;;;;;2.38;0.90;;;21.00;45.50;;;24.82;30.86;100620.50;5117966;28;20051;-53
2021/05/25 08:28:59;;;;;;;2.13;0.90;;;21.00;45.50;;;24.81;30.65;100618.81;5117779;28;20039;-55
2021/05/25 08:31:25;;;;;;;1.98;0.90;;;21.00;45.40;;;24.80;30.57;100614.44;5135169;28;20046;-52
2021/05/25 08:33:51;;;;;;;5.65;1.33;;;21.00;45.40;;;24.77;30.53;100620.91;5117989;28;20092;-55
2021/05/25 08:36:18;;;;;;;3.80;0.80;;;20.90;45.30;;;24.78;30.70;100617.22;5136148;28;20047;-54
2021/05/25 08:38:45;;;;;;;1.77;0.90;;;20.90;45.30;;;24.74;30.53;100614.94;5100810;28;20035;-54
2021/05/25 08:41:11;;;;;;;3.47;1.02;;;20.90;45.30;;;24.75;30.61;100613.97;5136070;27;20130;-55
2021/05/25 08:43:37;;;;;;;3.22;1.00;;;20.90;45.30;;;24.74;30.78;100623.81;5117402;28;20049;-56
2021/05/25 08:46:04;;;;;;;2.88;0.90;;;20.90;45.30;;;24.74;30.75;100623.81;5134809;28;20051;-56
2021/05/25 08:48:30;;;;;;;0.80;0.73;;;20.90;45.30;;;24.73;30.68;100619.44;5117316;28;20051;-56
2021/05/25 08:51:00;;;;;;;1.45;0.90;;;20.90;45.30;;;24.74;30.65;100630.97;5117406;28;20050;-56
2021/05/25 08:53:28;;;;;;;3.53;1.00;;;20.90;45.20;;;24.77;30.60;100628.06;5117216;28;20043;-57
2021/05/25 08:55:55;;;;;;;3.00;0.80;;;21.00;45.10;;;24.83;30.53;100632.06;5117381;28;20054;-55
2021/05/25 08:58:22;;;;;;;1.55;0.90;;;21.10;45.00;;;24.81;30.42;100629.50;5100384;28;20513;-56
2021/05/25 09:00:51;;;;;;;4.32;1.02;;;21.10;44.90;;;24.90;30.50;100630.56;5135028;28;20048;-57
2021/05/25 09:03:19;;;;;;;1.33;1.00;;;21.10;44.70;;;24.95;30.33;100631.88;5134248;28;20093;-55
2021/05/25 09:06:06;;;;;;;4.50;0.88;;;21.20;44.70;;;25.02;30.39;100631.38;5134269;28;20124;-56
2021/05/25 09:08:32;;;;;;;1.80;0.60;;;21.20;44.50;;;25.12;30.22;100629.63;5119144;28;20107;-57
2021/05/25 09:11:06;;;;;;;2.47;0.88;;;21.20;44.30;;;25.12;30.05;100638.50;5117306;28;20079;-56
2021/05/25 09:13:32;;;;;;;1.65;0.95;;;21.30;44.30;;;25.18;29.99;100630.97;5117319;28;20050;-58
2021/05/25 09:15:59;;;;;;;1.83;0.82;;;21.30;44.20;;;25.19;29.93;100619.28;5135690;27;20047;-55
2021/05/25 09:18:31;;;;;;;1.20;0.70;;;21.30;44.00;;;25.25;29.96;100621.44;5134225;28;20070;-57
2021/05/25 09:21:03;;;;;;;2.63;0.80;;;21.40;44.00;;;25.30;29.65;100628.13;5100223;28;20047;-56
2021/05/25 09:26:13;;;;;;;3.58;0.90;;;21.50;43.80;;;25.40;29.74;100622.00;5134293;28;20055;-56
2021/05/25 09:29:06;;;;;;;1.35;0.70;;;21.50;43.60;;;25.42;29.51;100612.84;5134067;27;20055;-57
2021/05/25 09:31:46;;;;;;;2.60;0.82;;;21.50;43.50;;;25.44;29.44;100623.44;5116034;28;20043;-56
2021/05/25 09:34:21;;;;;;;1.15;0.70;;;21.50;43.50;;;25.41;29.42;100623.69;5133629;28;20051;-56
2021/05/25 09:37:09;;;;;;;1.75;0.80;;;21.50;43.60;;;25.41;29.29;100615.66;5116750;28;20054;-56
2021/05/25 09:39:41;;;;;;;2.30;0.73;;;21.50;43.60;;;25.38;29.49;100622.13;5116970;28;20391;-56
2021/05/25 09:42:11;;;;;;;3.13;0.82;;;21.40;43.60;;;25.32;29.34;100618.13;5116648;28;20051;-57
2021/05/25 09:45:05;;;;;;;2.22;0.90;;;21.40;43.60;;;25.31;29.62;100629.84;5100014;28;20552;-55
2021/05/25 09:47:41;;;;;;;0.70;0.70;;;21.30;43.70;;;25.26;29.46;100618.66;5133775;28;20046;-55
2021/05/25 09:50:10;;;;;;;1.70;0.80;;;21.30;43.70;;;25.27;29.44;100617.66;5116806;28;20367;-57
2021/05/25 09:52:59;;;;;;;1.23;0.60;;;21.30;43.80;;;25.28;29.51;100613.19;5133554;28;20051;-57
2021/05/25 09:55:25;;;;;;;1.35;0.90;;;21.30;43.70;;;25.30;29.26;100614.75;5116230;28;20417;-56
2021/05/25 09:57:58;;;;;;;1.52;0.75;;;21.30;43.70;;;25.24;29.52;100599.19;5134853;27;20513;-57
2021/05/25 10:00:35;;;;;;;0.82;0.60;;;21.40;43.70;;;25.27;29.53;100606.13;5116545;28;20053;-56
2021/05/25 10:03:14;;;;;;;1.70;0.73;;;21.40;43.60;;;25.24;29.48;100592.97;5116498;28;20072;-56
2021/05/25 10:05:49;;;;;;;2.55;1.05;;;21.40;43.60;;;25.27;29.32;100590.06;5116409;28;20046;-56
2021/05/25 10:08:17;;;;;;;1.95;0.80;;;21.40;43.50;;;25.34;29.34;100593.91;5116289;28;20055;-56
2021/05/25 10:10:43;;;;;;;1.20;0.80;;;21.40;43.50;;;25.35;29.34;100592.13;5115951;28;20047;-55
2021/05/25 10:13:11;;;;;;;2.30;0.90;;;21.50;43.40;;;25.40;29.35;100593.41;5116348;28;20043;-56
2021/05/25 10:15:37;;;;;;;2.42;0.65;;;21.50;43.30;;;25.51;29.22;100597.84;5099174;28;20047;-56
2021/05/25 10:20:33;;;;;;;2.03;0.80;;;21.60;43.00;;;25.54;29.07;100596.72;5116021;28;20062;-55
2021/05/25 10:23:00;;;;;;;1.95;0.68;;;21.60;43.00;;;25.54;28.87;100602.09;5099321;28;20039;-57